createdAt,value
2018-06-18T00:00:17.955Z,88.35
2018-06-18T00:01:17.950Z,89.03
2018-06-18T00:02:17.943Z,88.74
2018-06-18T00:03:17.924Z,89.03
2018-06-18T00:04:17.912Z,88.74
2018-06-18T00:05:17.899Z,88.45
2018-06-18T00:06:17.887Z,88.35
2018-06-18T00:07:17.867Z,88.55
2018-06-18T00:08:17.854Z,88.26
2018-06-18T00:09:17.845Z,88.65
2018-06-18T00:10:17.834Z,88.55
2018-06-18T00:11:17.818Z,88.07
2018-06-18T00:12:17.953Z,87.78
2018-06-18T00:13:17.787Z,87.88
2018-06-18T00:14:17.780Z,89.03
2018-06-18T00:15:17.765Z,88.84
2018-06-18T00:16:17.751Z,89.32
2018-06-18T00:17:17.732Z,90.18
2018-06-18T00:18:17.726Z,89.41
2018-06-18T00:19:17.707Z,89.61
2018-06-18T00:20:17.700Z,89.89
2018-06-18T00:21:17.685Z,89.89
2018-06-18T00:22:17.719Z,89.79
2018-06-18T00:23:17.658Z,89.51
2018-06-18T00:24:17.669Z,89.79
2018-06-18T00:25:17.630Z,90.66
2018-06-18T00:26:17.611Z,91.09
2018-06-18T00:27:17.598Z,90.95
2018-06-18T00:28:17.592Z,91.19
2018-06-18T00:29:17.572Z,92.00
2018-06-18T00:30:17.568Z,91.91
2018-06-18T00:31:17.548Z,91.42
2018-06-18T00:32:17.530Z,91.24
2018-06-18T00:33:17.522Z,91.62
2018-06-18T00:34:17.510Z,90.75
2018-06-18T00:35:17.499Z,91.24
2018-06-18T00:36:17.481Z,91.72
2018-06-18T00:37:17.471Z,91.24
2018-06-18T00:38:17.458Z,90.47
2018-06-18T00:39:17.443Z,90.56
2018-06-18T00:40:17.429Z,90.42
2018-06-18T00:41:17.410Z,91.62
2018-06-18T00:42:17.410Z,90.66
2018-06-18T00:43:17.394Z,90.75
2018-06-18T00:44:17.378Z,90.47
2018-06-18T00:45:17.363Z,90.56
2018-06-18T00:46:17.347Z,89.89
2018-06-18T00:47:17.343Z,89.41
2018-06-18T00:48:17.321Z,90.08
2018-06-18T00:49:17.308Z,90.37
2018-06-18T00:50:17.299Z,90.18
2018-06-18T00:51:17.284Z,90.52
2018-06-18T00:52:17.265Z,90.56
2018-06-18T00:53:17.261Z,90.56
2018-06-18T00:54:17.245Z,90.37
2018-06-18T00:55:17.226Z,90.37
2018-06-18T00:56:17.212Z,89.89
2018-06-18T00:57:17.207Z,89.89
2018-06-18T00:58:17.190Z,90.18
2018-06-18T00:59:17.174Z,90.66
2018-06-18T01:00:17.162Z,90.33
2018-06-18T01:01:17.149Z,90.95
2018-06-18T01:02:17.136Z,91.19
2018-06-18T01:03:17.123Z,90.81
2018-06-18T01:04:17.107Z,90.66
2018-06-18T01:05:17.089Z,90.56
2018-06-18T01:06:17.090Z,90.47
2018-06-18T01:07:17.071Z,90.37
2018-06-18T01:08:17.053Z,90.42
2018-06-18T01:09:17.042Z,91.33
2018-06-18T01:10:17.029Z,91.00
2018-06-18T01:11:17.023Z,90.71
2018-06-18T01:12:17.011Z,91.57
2018-06-18T01:13:16.991Z,90.52
2018-06-18T01:14:16.984Z,91.67
2018-06-18T01:15:16.955Z,91.09
2018-06-18T01:16:16.949Z,91.24
2018-06-18T01:17:16.933Z,90.52
2018-06-18T01:18:16.917Z,90.28
2018-06-18T01:19:16.907Z,90.08
2018-06-18T01:20:16.896Z,90.56
2018-06-18T01:21:16.889Z,91.52
2018-06-18T01:22:16.864Z,90.95
2018-06-18T01:23:16.855Z,90.08
2018-06-18T01:24:16.841Z,90.28
2018-06-18T01:25:16.835Z,90.08
2018-06-18T01:26:16.815Z,89.99
2018-06-18T01:27:16.803Z,91.33
2018-06-18T01:28:16.783Z,91.77
2018-06-18T01:29:16.774Z,92.54
2018-06-18T01:30:16.761Z,93.21
2018-06-18T01:31:16.771Z,93.21
2018-06-18T01:32:16.742Z,93.21
2018-06-18T01:33:16.728Z,93.59
2018-06-18T01:34:16.708Z,93.88
2018-06-18T01:35:16.786Z,94.45
2018-06-18T01:36:16.681Z,95.07
2018-06-18T01:37:16.669Z,95.07
2018-06-18T01:38:16.652Z,94.98
2018-06-18T01:39:16.649Z,95.75
2018-06-18T01:40:16.627Z,95.75
2018-06-18T01:41:16.616Z,95.65
2018-06-18T01:42:16.602Z,96.42
2018-06-18T01:43:16.786Z,96.61
2018-06-18T01:44:16.572Z,96.08
2018-06-18T01:45:16.662Z,95.79
2018-06-18T01:46:16.549Z,96.18
2018-06-18T01:47:16.546Z,95.51
2018-06-18T01:48:16.521Z,95.75
2018-06-18T01:49:16.501Z,96.61
2018-06-18T01:50:16.497Z,97.18
2018-06-18T01:51:16.481Z,97.95
2018-06-18T01:52:16.467Z,97.85
2018-06-18T01:53:16.600Z,98.19
2018-06-18T01:54:16.441Z,98.38
2018-06-18T01:55:16.427Z,98.76
2018-06-18T01:56:16.410Z,98.57
2018-06-18T01:57:16.443Z,98.86
2018-06-18T01:58:16.376Z,98.86
2018-06-18T01:59:16.372Z,98.96
2018-06-18T02:00:16.358Z,99.72
2018-06-18T02:01:16.341Z,98.86
2018-06-18T02:02:16.331Z,98.96
2018-06-18T02:03:16.321Z,99.53
2018-06-18T02:04:16.299Z,99.72
2018-06-18T02:05:16.281Z,99.72
2018-06-18T02:06:16.267Z,99.53
2018-06-18T02:07:16.257Z,99.34
2018-06-18T02:08:16.241Z,99.72
2018-06-18T02:09:16.229Z,99.91
2018-06-18T02:10:16.226Z,99.91
2018-06-18T02:11:16.196Z,99.99
2018-06-18T02:12:16.187Z,99.82
2018-06-18T02:13:16.174Z,99.72
2018-06-18T02:14:16.157Z,99.72
2018-06-18T02:15:16.142Z,99.99
2018-06-18T02:16:16.181Z,99.99
2018-06-18T02:17:16.111Z,99.99
2018-06-18T02:18:16.112Z,99.99
2018-06-18T02:19:16.091Z,99.99
2018-06-18T02:20:16.079Z,99.99
2018-06-18T02:21:16.055Z,99.99
2018-06-18T02:22:16.052Z,99.99
2018-06-18T02:23:16.035Z,99.99
2018-06-18T02:24:16.021Z,99.99
2018-06-18T02:25:16.008Z,99.99
2018-06-18T02:26:15.987Z,99.99
2018-06-18T02:27:15.975Z,99.99
2018-06-18T02:28:15.953Z,99.99
2018-06-18T02:29:15.946Z,99.99
2018-06-18T02:30:15.938Z,99.99
2018-06-18T02:31:15.912Z,99.99
2018-06-18T02:32:15.905Z,99.99
2018-06-18T02:33:15.889Z,99.99
2018-06-18T02:34:15.882Z,99.99
2018-06-18T02:35:15.859Z,99.99
2018-06-18T02:36:15.847Z,99.99
2018-06-18T02:37:15.824Z,99.99
2018-06-18T02:38:15.819Z,99.99
2018-06-18T02:39:15.800Z,99.99
2018-06-18T02:40:15.793Z,99.99
2018-06-18T02:41:15.779Z,99.99
2018-06-18T02:42:15.757Z,99.99
2018-06-18T02:43:15.748Z,99.99
2018-06-18T02:44:15.728Z,99.99
2018-06-18T02:45:15.715Z,99.99
2018-06-18T02:46:15.704Z,99.99
2018-06-18T02:47:15.693Z,99.99
2018-06-18T02:48:15.666Z,99.99
2018-06-18T02:49:15.670Z,99.99
2018-06-18T02:50:15.653Z,99.99
2018-06-18T02:51:15.628Z,99.99
2018-06-18T02:52:15.615Z,99.99
2018-06-18T02:53:15.602Z,99.99
2018-06-18T02:54:15.587Z,99.99
2018-06-18T02:55:15.568Z,99.99
2018-06-18T02:56:15.556Z,99.99
2018-06-18T02:57:15.545Z,99.99
2018-06-18T02:58:15.532Z,99.99
2018-06-18T02:59:15.520Z,99.99
2018-06-18T03:00:15.501Z,99.99
2018-06-18T03:01:15.488Z,99.99
2018-06-18T03:02:15.472Z,99.99
2018-06-18T03:03:15.462Z,99.99
2018-06-18T03:04:15.446Z,99.99
2018-06-18T03:05:15.433Z,99.99
2018-06-18T03:06:15.411Z,99.99
2018-06-18T03:07:15.398Z,99.99
2018-06-18T03:08:15.384Z,99.99
2018-06-18T03:09:15.372Z,99.99
2018-06-18T03:10:15.350Z,99.99
2018-06-18T03:11:15.347Z,99.99
2018-06-18T03:12:15.376Z,99.99
2018-06-18T03:13:15.317Z,99.99
2018-06-18T03:14:15.296Z,99.99
2018-06-18T03:15:15.282Z,99.99
2018-06-18T03:16:15.273Z,99.99
2018-06-18T03:17:15.299Z,99.99
2018-06-18T03:18:15.239Z,99.99
2018-06-18T03:19:15.228Z,99.99
2018-06-18T03:20:15.254Z,99.99
2018-06-18T03:21:15.200Z,99.99
2018-06-18T03:22:15.283Z,99.99
2018-06-18T03:23:15.172Z,99.99
2018-06-18T03:24:15.181Z,99.99
2018-06-18T03:25:15.142Z,99.99
2018-06-18T03:26:15.158Z,99.99
2018-06-18T03:27:15.110Z,99.99
2018-06-18T03:28:15.104Z,99.99
2018-06-18T03:29:15.090Z,99.99
2018-06-18T03:30:15.068Z,99.99
2018-06-18T03:31:15.057Z,99.99
2018-06-18T03:32:15.142Z,99.99
2018-06-18T03:33:15.029Z,99.99
2018-06-18T03:34:15.105Z,99.99
2018-06-18T03:35:15.001Z,99.99
2018-06-18T03:36:15.028Z,99.99
2018-06-18T03:37:15.041Z,99.99
2018-06-18T03:38:15.012Z,99.68
2018-06-18T03:39:14.938Z,99.68
2018-06-18T03:40:14.932Z,99.77
2018-06-18T03:41:14.915Z,99.15
2018-06-18T03:42:15.002Z,98.86
2018-06-18T03:43:14.887Z,98.96
2018-06-18T03:44:14.872Z,98.38
2018-06-18T03:45:14.859Z,98.00
2018-06-18T03:46:14.841Z,97.52
2018-06-18T03:47:14.827Z,98.10
2018-06-18T03:48:14.819Z,97.33
2018-06-18T03:49:14.797Z,97.61
2018-06-18T03:50:14.792Z,96.66
2018-06-18T03:51:14.775Z,96.18
2018-06-18T03:52:14.762Z,96.85
2018-06-18T03:53:14.746Z,97.14
2018-06-18T03:54:14.729Z,97.23
2018-06-18T03:55:14.727Z,97.61
2018-06-18T03:56:14.716Z,98.43
2018-06-18T03:57:14.687Z,99.10
2018-06-18T03:58:14.681Z,99.39
2018-06-18T03:59:14.660Z,99.99
2018-06-18T04:00:14.646Z,99.99
2018-06-18T04:01:14.627Z,99.99
2018-06-18T04:02:14.617Z,99.99
2018-06-18T04:03:14.609Z,99.99
2018-06-18T04:04:14.590Z,99.99
2018-06-18T04:05:14.602Z,99.99
2018-06-18T04:06:14.557Z,99.99
2018-06-18T04:07:14.550Z,99.99
2018-06-18T04:08:14.537Z,99.99
2018-06-18T04:09:14.521Z,99.99
2018-06-18T04:10:14.509Z,99.99
2018-06-18T04:11:14.495Z,99.99
2018-06-18T04:12:14.544Z,99.99
2018-06-18T04:13:14.475Z,99.99
2018-06-18T04:14:14.451Z,99.99
2018-06-18T04:15:14.443Z,99.99
2018-06-18T04:16:14.424Z,99.99
2018-06-18T04:17:14.406Z,99.99
2018-06-18T04:18:14.404Z,99.99
2018-06-18T04:19:14.383Z,99.99
2018-06-18T04:20:14.366Z,99.99
2018-06-18T04:21:14.356Z,99.99
2018-06-18T04:22:14.337Z,99.99
2018-06-18T04:23:14.327Z,99.99
2018-06-18T04:24:14.319Z,99.99
2018-06-18T04:25:14.302Z,99.99
2018-06-18T04:26:14.289Z,99.99
2018-06-18T04:27:14.273Z,99.99
2018-06-18T04:28:14.261Z,99.99
2018-06-18T04:29:14.237Z,99.99
2018-06-18T04:30:14.224Z,99.99
2018-06-18T04:31:14.220Z,99.99
2018-06-18T04:32:14.206Z,99.99
2018-06-18T04:33:14.199Z,99.99
2018-06-18T04:34:14.177Z,99.99
2018-06-18T04:35:14.158Z,99.99
2018-06-18T04:36:14.153Z,99.99
2018-06-18T04:37:14.131Z,99.99
2018-06-18T04:38:14.123Z,99.99
2018-06-18T04:39:14.109Z,99.99
2018-06-18T04:40:14.092Z,99.99
2018-06-18T04:41:14.083Z,99.99
2018-06-18T04:42:14.067Z,99.99
2018-06-18T04:43:14.053Z,99.99
2018-06-18T04:44:14.038Z,99.99
2018-06-18T04:45:14.029Z,99.99
2018-06-18T04:46:14.012Z,99.99
2018-06-18T04:47:14.005Z,99.99
2018-06-18T04:48:13.980Z,99.53
2018-06-18T04:49:13.970Z,99.73
2018-06-18T04:50:13.955Z,99.99
2018-06-18T04:51:13.954Z,99.99
2018-06-18T04:52:13.928Z,99.99
2018-06-18T04:53:13.916Z,99.99
2018-06-18T04:54:13.899Z,99.91
2018-06-18T04:55:13.890Z,99.63
2018-06-18T04:56:13.881Z,99.82
2018-06-18T04:57:13.859Z,99.99
2018-06-18T04:58:13.851Z,99.99
2018-06-18T04:59:13.829Z,99.99
2018-06-18T05:00:13.820Z,99.99
2018-06-18T05:01:13.807Z,99.99
2018-06-18T05:02:13.790Z,99.53
2018-06-18T05:03:13.833Z,99.44
2018-06-18T05:04:13.779Z,99.63
2018-06-18T05:05:13.762Z,99.68
2018-06-18T05:06:13.743Z,99.68
2018-06-18T05:07:13.726Z,99.10
2018-06-18T05:08:13.710Z,98.67
2018-06-18T05:09:13.747Z,99.10
2018-06-18T05:10:13.694Z,98.53
2018-06-18T05:11:13.679Z,98.00
2018-06-18T05:12:13.662Z,97.19
2018-06-18T05:13:13.650Z,97.86
2018-06-18T05:14:13.642Z,97.19
2018-06-18T05:15:13.617Z,97.09
2018-06-18T05:16:13.605Z,97.47
2018-06-18T05:17:13.594Z,96.80
2018-06-18T05:18:13.584Z,96.89
2018-06-18T05:19:13.618Z,96.51
2018-06-18T05:20:13.558Z,96.42
2018-06-18T05:21:13.544Z,96.42
2018-06-18T05:22:13.532Z,95.94
2018-06-18T05:23:13.509Z,96.80
2018-06-18T05:24:13.503Z,96.51
2018-06-18T05:25:13.483Z,96.32
2018-06-18T05:26:13.467Z,96.22
2018-06-18T05:27:13.457Z,96.13
2018-06-18T05:28:13.439Z,95.75
2018-06-18T05:29:13.429Z,96.03
2018-06-18T05:30:13.419Z,95.94
2018-06-18T05:31:13.403Z,95.65
2018-06-18T05:32:13.388Z,95.75
2018-06-18T05:33:13.373Z,95.17
2018-06-18T05:34:13.362Z,95.65
2018-06-18T05:35:13.345Z,95.36
2018-06-18T05:36:13.349Z,94.64
2018-06-18T05:37:13.323Z,94.93
2018-06-18T05:38:13.311Z,94.74
2018-06-18T05:39:13.299Z,94.74
2018-06-18T05:40:13.285Z,94.26
2018-06-18T05:41:13.267Z,94.16
2018-06-18T05:42:13.254Z,93.59
2018-06-18T05:43:13.238Z,93.97
2018-06-18T05:44:13.232Z,93.49
2018-06-18T05:45:13.223Z,93.01
2018-06-18T05:46:13.203Z,93.01
2018-06-18T05:47:13.194Z,93.30
2018-06-18T05:48:13.175Z,92.43
2018-06-18T05:49:13.157Z,93.10
2018-06-18T05:50:13.152Z,92.91
2018-06-18T05:51:13.133Z,93.20
2018-06-18T05:52:13.120Z,93.30
2018-06-18T05:53:13.109Z,93.59
2018-06-18T05:54:13.098Z,93.49
2018-06-18T05:55:13.092Z,93.59
2018-06-18T05:56:13.073Z,93.59
2018-06-18T05:57:13.059Z,93.30
2018-06-18T05:58:13.044Z,93.87
2018-06-18T05:59:13.027Z,93.01
2018-06-18T06:00:13.012Z,93.30
2018-06-18T06:01:13.002Z,93.49
2018-06-18T06:02:12.988Z,94.21
2018-06-18T06:03:12.979Z,94.54
2018-06-18T06:04:12.957Z,93.92
2018-06-18T06:05:12.948Z,94.12
2018-06-18T06:06:12.941Z,94.69
2018-06-18T06:07:12.922Z,94.79
2018-06-18T06:08:12.909Z,94.98
2018-06-18T06:09:12.895Z,95.26
2018-06-18T06:10:12.877Z,95.07
2018-06-18T06:11:12.864Z,95.17
2018-06-18T06:12:12.849Z,95.75
2018-06-18T06:13:12.843Z,96.51
2018-06-18T06:14:12.833Z,96.51
2018-06-18T06:15:12.831Z,96.99
2018-06-18T06:16:12.798Z,98.05
2018-06-18T06:17:12.792Z,97.66
2018-06-18T06:18:12.776Z,97.95
2018-06-18T06:19:12.759Z,97.86
2018-06-18T06:20:12.750Z,98.43
2018-06-18T06:21:12.739Z,97.86
2018-06-18T06:22:12.724Z,98.33
2018-06-18T06:23:12.706Z,98.05
2018-06-18T06:24:12.692Z,98.53
2018-06-18T06:25:12.692Z,98.91
2018-06-18T06:26:12.670Z,99.29
2018-06-18T06:27:12.658Z,98.53
2018-06-18T06:28:12.632Z,98.62
2018-06-18T06:29:12.625Z,98.43
2018-06-18T06:30:12.612Z,98.24
2018-06-18T06:31:12.603Z,99.29
2018-06-18T06:32:12.577Z,98.72
2018-06-18T06:33:12.571Z,98.82
2018-06-18T06:34:12.594Z,98.62
2018-06-18T06:35:12.547Z,99.01
2018-06-18T06:36:12.533Z,99.49
2018-06-18T06:37:12.520Z,99.20
2018-06-18T06:38:12.504Z,99.20
2018-06-18T06:39:12.491Z,98.82
2018-06-18T06:40:12.472Z,98.91
2018-06-18T06:41:12.469Z,98.91
2018-06-18T06:42:12.450Z,99.01
2018-06-18T06:43:12.437Z,98.91
2018-06-18T06:44:12.472Z,98.72
2018-06-18T06:45:12.412Z,98.86
2018-06-18T06:46:12.399Z,98.48
2018-06-18T06:47:12.383Z,97.91
2018-06-18T06:48:12.367Z,97.71
2018-06-18T06:49:12.357Z,97.71
2018-06-18T06:50:12.339Z,97.71
2018-06-18T06:51:12.331Z,97.81
2018-06-18T06:52:12.319Z,97.33
2018-06-18T06:53:12.301Z,97.19
2018-06-18T06:54:12.292Z,96.70
2018-06-18T06:55:12.276Z,96.61
2018-06-18T06:56:12.260Z,96.42
2018-06-18T06:57:12.251Z,95.75
2018-06-18T06:58:12.241Z,95.84
2018-06-18T06:59:12.228Z,96.61
2018-06-18T07:00:12.212Z,96.70
2018-06-18T07:01:12.228Z,96.99
2018-06-18T07:02:12.201Z,96.80
2018-06-18T07:03:12.172Z,96.66
2018-06-18T07:04:12.165Z,96.66
2018-06-18T07:05:12.167Z,95.75
2018-06-18T07:06:12.132Z,95.70
2018-06-18T07:07:12.122Z,95.70
2018-06-18T07:08:12.116Z,96.61
2018-06-18T07:09:12.097Z,97.24
2018-06-18T07:10:12.088Z,96.89
2018-06-18T07:11:12.074Z,96.56
2018-06-18T07:12:12.064Z,96.61
2018-06-18T07:13:12.037Z,96.85
2018-06-18T07:14:12.038Z,96.18
2018-06-18T07:15:12.022Z,96.03
2018-06-18T07:16:12.013Z,95.84
2018-06-18T07:17:11.993Z,95.94
2018-06-18T07:18:11.980Z,95.26
2018-06-18T07:19:11.964Z,95.07
2018-06-18T07:20:11.958Z,95.55
2018-06-18T07:21:11.937Z,95.84
2018-06-18T07:22:11.941Z,95.94
2018-06-18T07:23:11.919Z,95.75
2018-06-18T07:24:11.902Z,95.07
2018-06-18T07:25:11.890Z,94.88
2018-06-18T07:26:11.881Z,94.69
2018-06-18T07:27:11.863Z,94.59
2018-06-18T07:28:11.869Z,94.06
2018-06-18T07:29:11.837Z,93.87
2018-06-18T07:30:11.874Z,93.77
2018-06-18T07:31:11.871Z,93.96
2018-06-18T07:32:11.798Z,93.58
2018-06-18T07:33:11.880Z,93.68
2018-06-18T07:34:11.775Z,93.87
2018-06-18T07:35:11.865Z,93.19
2018-06-18T07:36:11.759Z,92.57
2018-06-18T07:37:11.752Z,92.47
2018-06-18T07:38:11.723Z,92.57
2018-06-18T07:39:11.823Z,92.38
2018-06-18T07:40:11.701Z,92.57
2018-06-18T07:41:11.692Z,91.71
2018-06-18T07:42:11.700Z,90.94
2018-06-18T07:43:11.674Z,91.56
2018-06-18T07:44:11.658Z,91.61
2018-06-18T07:45:11.645Z,91.42
2018-06-18T07:46:11.627Z,92.38
2018-06-18T07:47:11.623Z,91.80
2018-06-18T07:48:11.597Z,91.90
2018-06-18T07:49:11.587Z,91.52
2018-06-18T07:50:11.578Z,91.80
2018-06-18T07:51:11.581Z,91.52
2018-06-18T07:52:11.557Z,92.29
2018-06-18T07:53:11.543Z,91.61
2018-06-18T07:54:11.533Z,91.52
2018-06-18T07:55:11.520Z,91.80
2018-06-18T07:56:11.508Z,91.90
2018-06-18T07:57:11.499Z,91.52
2018-06-18T07:58:11.489Z,90.65
2018-06-18T07:59:11.473Z,91.61
2018-06-18T08:00:11.463Z,90.75
2018-06-18T08:01:11.454Z,90.75
2018-06-18T08:02:11.443Z,90.94
2018-06-18T08:03:11.424Z,91.75
2018-06-18T08:04:11.406Z,90.79
2018-06-18T08:05:11.393Z,91.32
2018-06-18T08:06:11.389Z,91.80
2018-06-18T08:07:11.383Z,91.32
2018-06-18T08:08:11.367Z,91.90
2018-06-18T08:09:11.354Z,91.90
2018-06-18T08:10:11.340Z,91.32
2018-06-18T08:11:11.329Z,91.36
2018-06-18T08:12:11.317Z,90.98
2018-06-18T08:13:11.303Z,90.21
2018-06-18T08:14:11.296Z,90.79
2018-06-18T08:15:11.284Z,91.08
2018-06-18T08:16:11.272Z,90.21
2018-06-18T08:17:11.260Z,90.02
2018-06-18T08:18:11.239Z,89.06
2018-06-18T08:19:11.301Z,89.83
2018-06-18T08:20:11.222Z,89.83
2018-06-18T08:21:11.207Z,88.96
2018-06-18T08:22:11.200Z,88.87
2018-06-18T08:23:11.194Z,89.54
2018-06-18T08:24:11.169Z,89.06
2018-06-18T08:25:11.159Z,90.02
2018-06-18T08:26:11.146Z,90.12
2018-06-18T08:27:11.136Z,90.21
2018-06-18T08:28:11.123Z,90.02
2018-06-18T08:29:11.114Z,89.54
2018-06-18T08:30:11.105Z,89.06
2018-06-18T08:31:11.091Z,89.06
2018-06-18T08:32:11.080Z,88.67
2018-06-18T08:33:11.058Z,88.87
2018-06-18T08:34:11.051Z,88.29
2018-06-18T08:35:11.043Z,88.87
2018-06-18T08:36:11.034Z,88.67
2018-06-18T08:37:11.014Z,89.54
2018-06-18T08:38:11.013Z,88.71
2018-06-18T08:39:10.994Z,87.76
2018-06-18T08:40:10.978Z,87.66
2018-06-18T08:41:10.972Z,87.66
2018-06-18T08:42:10.956Z,87.27
2018-06-18T08:43:10.953Z,86.69
2018-06-18T08:44:10.953Z,86.69
2018-06-18T08:45:10.917Z,86.31
2018-06-18T08:46:10.913Z,85.54
2018-06-18T08:47:10.905Z,85.58
2018-06-18T08:48:10.892Z,85.00
2018-06-18T08:49:10.879Z,84.56
2018-06-18T08:50:10.871Z,82.83
2018-06-18T08:51:10.853Z,83.31
2018-06-18T08:52:10.850Z,82.54
2018-06-18T08:53:10.827Z,83.03
2018-06-18T08:54:10.921Z,82.64
2018-06-18T08:55:10.807Z,82.26
2018-06-18T08:56:10.852Z,81.87
2018-06-18T08:57:10.793Z,81.52
2018-06-18T08:58:10.780Z,81.91
2018-06-18T08:59:10.763Z,81.68
2018-06-18T09:00:10.753Z,82.64
2018-06-18T09:01:10.742Z,82.93
2018-06-18T09:02:10.727Z,82.93
2018-06-18T09:03:10.764Z,82.83
2018-06-18T09:04:10.712Z,83.18
2018-06-18T09:05:10.702Z,83.12
2018-06-18T09:06:10.699Z,83.70
2018-06-18T09:07:10.678Z,82.45
2018-06-18T09:08:10.674Z,81.43
2018-06-18T09:09:10.648Z,79.25
2018-06-18T09:10:10.641Z,77.50
2018-06-18T09:11:10.639Z,76.40
2018-06-18T09:12:10.633Z,76.98
2018-06-18T09:13:10.627Z,76.05
2018-06-18T09:14:10.610Z,74.93
2018-06-18T09:15:10.605Z,74.69
2018-06-18T09:16:10.597Z,75.47
2018-06-18T09:17:10.581Z,75.85
2018-06-18T09:18:10.580Z,76.24
2018-06-18T09:19:10.559Z,75.27
2018-06-18T09:20:10.546Z,74.79
2018-06-18T09:21:10.537Z,75.82
2018-06-18T09:22:10.533Z,77.65
2018-06-18T09:23:10.520Z,77.26
2018-06-18T09:24:10.515Z,77.75
2018-06-18T09:25:10.500Z,77.65
2018-06-18T09:26:10.489Z,77.46
2018-06-18T09:27:10.483Z,77.81
2018-06-18T09:28:10.483Z,77.90
2018-06-18T09:29:10.462Z,78.00
2018-06-18T09:30:10.456Z,78.63
2018-06-18T09:31:10.447Z,79.31
2018-06-18T09:32:10.532Z,79.21
2018-06-18T09:33:10.429Z,79.50
2018-06-18T09:34:10.414Z,79.69
2018-06-18T09:35:10.412Z,80.66
2018-06-18T09:36:10.397Z,81.43
2018-06-18T09:37:10.380Z,80.85
2018-06-18T09:38:10.371Z,80.76
2018-06-18T09:39:10.369Z,80.18
2018-06-18T09:40:10.364Z,80.27
2018-06-18T09:41:10.348Z,79.54
2018-06-18T09:42:10.329Z,78.38
2018-06-18T09:43:10.319Z,78.03
2018-06-18T09:44:10.306Z,77.75
2018-06-18T09:45:10.299Z,77.46
2018-06-18T09:46:10.290Z,76.98
2018-06-18T09:47:10.322Z,78.23
2018-06-18T09:48:10.350Z,77.75
2018-06-18T09:49:10.261Z,78.03
2018-06-18T09:50:10.252Z,78.61
2018-06-18T09:51:10.233Z,78.67
2018-06-18T09:52:10.233Z,78.86
2018-06-18T09:53:10.222Z,79.50
2018-06-18T09:54:10.207Z,81.04
2018-06-18T09:55:10.204Z,81.52
2018-06-18T09:56:10.188Z,81.43
2018-06-18T09:57:10.179Z,81.72
2018-06-18T09:58:10.169Z,81.52
2018-06-18T09:59:10.154Z,82.20
2018-06-18T10:00:10.150Z,82.39
2018-06-18T10:01:10.134Z,82.49
2018-06-18T10:02:10.124Z,82.01
2018-06-18T10:03:10.115Z,81.33
2018-06-18T10:04:10.112Z,79.64
2018-06-18T10:05:10.101Z,78.42
2018-06-18T10:06:10.094Z,77.01
2018-06-18T10:07:10.068Z,76.88
2018-06-18T10:08:10.078Z,76.82
2018-06-18T10:09:10.053Z,76.63
2018-06-18T10:10:10.046Z,76.88
2018-06-18T10:11:10.031Z,77.21
2018-06-18T10:12:10.024Z,77.07
2018-06-18T10:13:10.014Z,77.84
2018-06-18T10:14:10.001Z,78.81
2018-06-18T10:15:09.988Z,78.96
2018-06-18T10:16:09.977Z,79.64
2018-06-18T10:17:09.972Z,80.69
2018-06-18T10:18:09.955Z,81.33
2018-06-18T10:19:09.953Z,81.43
2018-06-18T10:20:09.936Z,81.33
2018-06-18T10:21:09.925Z,82.68
2018-06-18T10:22:09.918Z,82.59
2018-06-18T10:23:09.907Z,82.59
2018-06-18T10:24:09.932Z,83.16
2018-06-18T10:25:09.880Z,82.97
2018-06-18T10:26:09.874Z,82.97
2018-06-18T10:27:09.864Z,82.97
2018-06-18T10:28:09.851Z,81.81
2018-06-18T10:29:09.842Z,82.49
2018-06-18T10:30:09.842Z,82.49
2018-06-18T10:31:09.820Z,82.59
2018-06-18T10:32:09.807Z,82.68
2018-06-18T10:33:09.796Z,82.59
2018-06-18T10:34:09.883Z,82.68
2018-06-18T10:35:09.784Z,82.29
2018-06-18T10:36:09.877Z,82.49
2018-06-18T10:37:09.756Z,82.43
2018-06-18T10:38:09.847Z,82.43
2018-06-18T10:39:09.737Z,81.57
2018-06-18T10:40:09.823Z,81.76
2018-06-18T10:41:09.711Z,80.69
2018-06-18T10:42:09.808Z,80.12
2018-06-18T10:43:09.686Z,79.77
2018-06-18T10:44:09.699Z,78.81
2018-06-18T10:45:09.671Z,79.29
2018-06-18T10:46:09.670Z,78.23
2018-06-18T10:47:09.648Z,77.69
2018-06-18T10:48:09.687Z,77.69
2018-06-18T10:49:09.632Z,77.59
2018-06-18T10:50:09.621Z,77.21
2018-06-18T10:51:09.607Z,77.50
2018-06-18T10:52:09.603Z,77.30
2018-06-18T10:53:09.584Z,77.98
2018-06-18T10:54:09.581Z,78.33
2018-06-18T10:55:09.573Z,78.23
2018-06-18T10:56:09.568Z,78.23
2018-06-18T10:57:09.555Z,78.33
2018-06-18T10:58:09.543Z,79.00
2018-06-18T10:59:09.526Z,79.25
2018-06-18T11:00:09.512Z,79.54
2018-06-18T11:01:09.508Z,80.22
2018-06-18T11:02:09.497Z,80.60
2018-06-18T11:03:09.492Z,80.51
2018-06-18T11:04:09.485Z,80.60
2018-06-18T11:05:09.472Z,80.99
2018-06-18T11:06:09.455Z,80.51
2018-06-18T11:07:09.452Z,80.51
2018-06-18T11:08:09.431Z,80.31
2018-06-18T11:09:09.420Z,80.60
2018-06-18T11:10:09.409Z,80.51
2018-06-18T11:11:09.398Z,80.85
2018-06-18T11:12:09.410Z,80.99
2018-06-18T11:13:09.381Z,80.31
2018-06-18T11:14:09.373Z,80.79
2018-06-18T11:15:09.371Z,80.60
2018-06-18T11:16:09.481Z,80.41
2018-06-18T11:17:09.549Z,80.60
2018-06-18T11:18:09.333Z,80.51
2018-06-18T11:19:09.319Z,81.09
2018-06-18T11:20:09.298Z,81.09
2018-06-18T11:21:09.297Z,80.89
2018-06-18T11:22:09.284Z,81.18
2018-06-18T11:23:09.279Z,81.27
2018-06-18T11:24:09.259Z,80.16
2018-06-18T11:25:09.318Z,79.58
2018-06-18T11:26:09.242Z,79.00
2018-06-18T11:27:09.354Z,79.00
2018-06-18T11:28:09.254Z,79.00
2018-06-18T11:29:09.208Z,79.29
2018-06-18T11:30:09.196Z,79.04
2018-06-18T11:31:09.194Z,78.27
2018-06-18T11:32:09.198Z,78.46
2018-06-18T11:33:09.172Z,78.46
2018-06-18T11:34:09.161Z,78.66
2018-06-18T11:35:09.147Z,78.08
2018-06-18T11:36:09.137Z,78.17
2018-06-18T11:37:09.128Z,77.78
2018-06-18T11:38:09.121Z,76.92
2018-06-18T11:39:09.109Z,77.88
2018-06-18T11:40:09.098Z,77.30
2018-06-18T11:41:09.086Z,76.63
2018-06-18T11:42:09.097Z,77.01
2018-06-18T11:43:09.069Z,77.78
2018-06-18T11:44:09.059Z,78.08
2018-06-18T11:45:09.051Z,77.69
2018-06-18T11:46:09.035Z,77.88
2018-06-18T11:47:09.022Z,77.78
2018-06-18T11:48:09.020Z,77.30
2018-06-18T11:49:09.008Z,78.08
2018-06-18T11:50:09.004Z,78.66
2018-06-18T11:51:09.015Z,78.52
2018-06-18T11:52:08.979Z,78.71
2018-06-18T11:53:08.965Z,79.49
2018-06-18T11:54:08.952Z,79.29
2018-06-18T11:55:08.940Z,79.58
2018-06-18T11:56:08.939Z,79.39
2018-06-18T11:57:08.920Z,79.68
2018-06-18T11:58:08.921Z,79.58
2018-06-18T11:59:08.906Z,79.39
2018-06-18T12:00:08.887Z,80.22
2018-06-18T12:01:08.881Z,80.93
2018-06-18T12:02:08.868Z,80.54
2018-06-18T12:03:08.855Z,80.45
2018-06-18T12:04:08.849Z,80.35
2018-06-18T12:05:08.843Z,80.26
2018-06-18T12:06:08.827Z,79.77
2018-06-18T12:07:08.833Z,79.77
2018-06-18T12:08:08.802Z,79.33
2018-06-18T12:09:08.810Z,79.77
2018-06-18T12:10:08.786Z,79.68
2018-06-18T12:11:08.781Z,79.68
2018-06-18T12:12:08.770Z,80.35
2018-06-18T12:13:08.760Z,80.06
2018-06-18T12:14:08.744Z,80.06
2018-06-18T12:15:08.731Z,80.45
2018-06-18T12:16:08.727Z,79.68
2018-06-18T12:17:08.717Z,80.35
2018-06-18T12:18:08.712Z,80.35
2018-06-18T12:19:08.688Z,80.74
2018-06-18T12:20:08.682Z,81.22
2018-06-18T12:21:08.672Z,81.60
2018-06-18T12:22:08.664Z,81.22
2018-06-18T12:23:08.649Z,81.76
2018-06-18T12:24:08.637Z,81.85
2018-06-18T12:25:08.630Z,81.66
2018-06-18T12:26:08.627Z,81.76
2018-06-18T12:27:08.608Z,82.82
2018-06-18T12:28:08.653Z,82.67
2018-06-18T12:29:08.589Z,82.48
2018-06-18T12:30:08.576Z,81.90
2018-06-18T12:31:08.570Z,82.38
2018-06-18T12:32:08.558Z,81.32
2018-06-18T12:33:08.548Z,81.35
2018-06-18T12:34:08.583Z,80.78
2018-06-18T12:35:08.522Z,81.51
2018-06-18T12:36:08.531Z,81.65
2018-06-18T12:37:08.501Z,82.42
2018-06-18T12:38:08.492Z,83.19
2018-06-18T12:39:08.481Z,83.96
2018-06-18T12:40:08.520Z,86.33
2018-06-18T12:41:08.486Z,87.59
2018-06-18T12:42:08.450Z,88.51
2018-06-18T12:43:08.442Z,91.36
2018-06-18T12:44:08.482Z,92.41
2018-06-18T12:45:08.422Z,92.22
2018-06-18T12:46:08.415Z,93.09
2018-06-18T12:47:08.399Z,93.66
2018-06-18T12:48:08.393Z,93.86
2018-06-18T12:49:08.376Z,92.51
2018-06-18T12:50:08.374Z,92.32
2018-06-18T12:51:08.355Z,91.74
2018-06-18T12:52:08.348Z,92.03